Geneseo, Kansas
Current Conditions -  °F | °C
As of 7:53 PM on Thursday 20 Nov 2014 (Local Time) from KSLN Reporting Station
Clear Clear  
Wind Chill: 30°   Ceiling: Unl
Heat Index: 36°   Visibility: 10mi
Dew Point: 19°   Wind: 8mph
Humidity: 50%   Direction: 110°ESE
Pressure: 30.17"   Gusts: NA
Location:  38.52°N, 98.16°W
Report Text: KSLN 210153Z 11007KT 10SM CLR 02/M07 A3017 RMK AO2 SLP228 T00221072
Loading
Personal Weather Stations






























Interactive Weather Map New forecast layout! Learn more

10-Day Weather Forecast

Advertisements
Track Severe Weather on mobile